Latest Coastal Weather Observations for Yamba

IDN60701

Issued at 8:12 am EDT Saturday 28 February 2015 (issued every 10 minutes, with the page automatically refreshed every 10 minutes)

About coastal observations | Map of coastal stations | Coastal observations for NSW | Marine services | Other Formats
Station Details ID: 058012 Name: YAMBA PILOT STATION Lat: -29.43 Lon: 153.36 Height: 27.4 m
Data from the previous 72 hours. | See also: Recent months at Yamba
Date/Time
EDT
Temp

°C
Wind Pressure Rain
since 9am
mm
Weather Cloud Vis
km
Sea
Height
m
Swell
Dir
 
Speed
knots
Gust
knots
hPa Trend Height
m
Period
s
Dir
28/08:00am 23.1 SSW 4 5 1010.9 - 0.2 - - - - - - -
28/07:30am 22.4 SW 4 6 1010.5 - 0.2 - - - - - - -
28/07:00am 22.1 WSW 3 5 1010.3 - 0.2 - - - - - - -
28/06:30am 22.0 SW 4 5 1010.0 - 0.2 - - - - - - -
28/06:00am 22.1 WSW 4 6 1009.8 - 0.2 - - - - - - -
28/05:30am 22.5 W 4 6 1009.5 - 0.2 - - - - - - -
28/05:00am 22.7 CALM 0 0 1009.4 - 0.2 - - - - - - -
28/04:30am 22.6 CALM 0 0 1009.3 - 0.2 - - - - - - -
28/04:00am 23.0 SSE 1 4 1009.4 - 0.2 - - - - - - -
28/03:30am 23.1 ENE 1 5 1009.5 - 0.0 - - - - - - -
28/03:00am 23.0 NNE 1 3 1009.9 - 0.0 - - - - - - -
28/02:30am 22.9 N 5 9 1010.1 - 0.0 - - - - - - -
28/02:00am 23.9 CALM 0 0 1010.0 - 0.0 - - - - - - -
28/01:30am 23.8 CALM 0 3 1010.2 - 0.0 - - - - - - -
28/01:00am 23.8 NW 3 6 1010.2 - 0.0 - - - - - - -
28/12:30am 24.2 NNW 3 5 1010.3 - 0.0 - - - - - - -
28/12:00am 24.3 N 4 6 1010.5 - 0.0 - - - - - - -
 
Date/Time
EDT
Temp

°C
Wind Pressure Rain
since 9am
mm
Weather Cloud Vis
km
Sea
Height
m
Swell
Dir
 
Speed
knots
Gust
knots
hPa Trend Height
m
Period
s
Dir
27/11:30pm 24.5 N 4 7 1010.3 - 0.0 - - - - - - -
27/11:00pm 24.7 NNE 5 9 1010.3 - 0.0 - - - - - - -
27/10:30pm 24.9 N 6 9 1010.2 - 0.0 - - - - - - -
27/10:00pm 25.1 NE 5 8 1010.1 - 0.0 - - - - - - -
27/09:30pm 25.1 NE 6 9 1009.7 - 0.0 - - - - - - -
27/09:00pm 25.0 NNE 6 10 1009.4 - 0.0 - - - - - - -
27/08:30pm 25.2 NNE 6 9 1009.4 - 0.0 - - - - - - -
27/08:00pm 25.3 NE 6 9 1009.0 - 0.0 - - - - - - -
27/07:30pm 25.3 NE 6 11 1008.7 - 0.0 - - - - - - -
27/07:00pm 25.5 NE 6 11 1008.3 - 0.0 - - - - - - -
27/06:30pm 25.6 NE 7 10 1007.9 - 0.0 - - - - - - -
27/06:00pm 25.7 NE 7 10 1007.5 - 0.0 - - - - - - -
27/05:30pm 25.9 NE 7 10 1007.4 - 0.0 - - - - - - -
27/05:00pm 26.2 NE 6 10 1007.1 - 0.0 - - - - - - -
27/04:30pm 26.4 NNE 7 11 1006.9 - 0.0 - - - - - - -
27/04:00pm 26.4 NE 6 9 1006.9 - 0.0 - - - - - - -
27/03:30pm 27.6 ENE 8 12 1006.8 - 0.0 - - - - - - -
27/03:00pm 27.9 NE 7 10 1007.0 - 0.0 - - - - - - -
27/02:30pm 28.2 ENE 6 9 1007.2 - 0.0 - - - - - - -
27/02:00pm 29.4 N 5 8 1007.4 - 0.0 - - - - - - -
27/01:30pm 30.2 NNW 5 7 1007.8 - 0.0 - - - - - - -
27/01:00pm 28.9 NW 5 8 1008.1 - 0.0 - - - - - - -
27/12:30pm 28.6 N 4 6 1008.5 - 0.0 - - - - - - -
27/12:00pm 28.6 N 5 10 1008.7 - 0.0 - - - - - - -
27/11:30am 27.6 NNE 5 9 1008.9 - 0.0 - - - - - - -
27/11:00am 27.7 N 5 10 1009.2 - 0.0 - - - - - - -
27/10:30am 27.5 N 4 11 1009.3 - 0.0 - - - - - - -
27/10:00am 26.2 NW 5 7 1009.3 - 0.0 - - - - - - -
27/09:30am 25.3 NW 5 7 1009.1 - 0.0 - - - - - - -
27/09:00am 24.1 WNW 5 7 1008.6 - 0.0 - - - - - - -
27/08:30am 23.7 N 3 6 1008.3 - 0.0 - - - - - - -
27/08:00am 22.9 N 3 6 1008.1 - 0.0 - - - - - - -
27/07:30am 22.0 NNW 4 7 1007.8 - 0.0 - - - - - - -
27/07:00am 21.7 NNW 5 7 1007.2 - 0.0 - - - - - - -
27/06:30am 22.1 N 6 9 1007.2 - 0.0 - - - - - - -
27/06:00am 21.8 NNW 4 6 1007.5 - 0.0 - - - - - - -
27/05:30am 22.4 WNW 5 7 1007.9 - 0.0 - - - - - - -
27/05:00am 22.3 W 4 5 1007.5 - 0.0 - - - - - - -
27/04:30am 22.6 NW 4 5 1007.4 - 0.0 - - - - - - -
27/04:00am 22.4 NW 4 7 1007.2 - 0.0 - - - - - - -
27/03:30am 22.3 WSW 3 4 1007.4 - 0.0 - - - - - - -
27/03:00am 22.5 SW 5 6 1008.0 - 0.0 - - - - - - -
27/02:30am 23.0 SW 5 7 1008.5 - 0.0 - - - - - - -
27/02:00am 22.9 SSW 5 6 1008.7 - 0.0 - - - - - - -
27/01:30am 22.7 SW 5 6 1008.8 - 0.0 - - - - - - -
27/01:00am 22.9 W 4 6 1008.4 - 0.0 - - - - - - -
27/12:30am 23.3 NNW 4 5 1008.7 - 0.0 - - - - - - -
27/12:00am 23.8 NW 3 6 1009.1 - 0.0 - - - - - - -
 
Date/Time
EDT
Temp

°C
Wind Pressure Rain
since 9am
mm
Weather Cloud Vis
km
Sea
Height
m
Swell
Dir
 
Speed
knots
Gust
knots
hPa Trend Height
m
Period
s
Dir
26/11:30pm 24.3 N 3 7 1009.2 - 0.0 - - - - - - -
26/11:00pm 24.4 NE 5 7 1008.9 - 0.0 - - - - - - -
26/10:30pm 24.2 NE 5 8 1009.1 - 0.0 - - - - - - -
26/10:00pm 24.3 NE 6 8 1009.0 - 0.0 - - - - - - -
26/09:30pm 24.3 NNE 5 7 1009.2 - 0.0 - - - - - - -
26/09:00pm 24.3 NE 4 7 1008.8 - 0.0 - - - - - - -
26/08:30pm 24.3 NE 4 7 1008.4 - 0.0 - - - - - - -
26/08:00pm 24.5 NE 5 7 1007.8 - 0.0 - - - - - - -
26/07:30pm 24.3 NNE 5 8 1008.0 - 0.0 - - - - - - -
26/07:00pm 24.4 NE 4 7 1007.7 - 0.0 - - - - - - -
26/06:30pm 24.4 NE 5 9 1007.3 - 0.0 - - - - - - -
26/06:00pm 24.7 NE 5 9 1007.5 - 0.0 - - - - - - -
26/05:30pm 24.7 NNE 4 6 1007.7 - 0.0 - - - - - - -
26/05:00pm 25.1 ENE 5 8 1007.7 - 0.0 - - - - - - -
26/04:30pm 25.3 ENE 5 7 1007.7 - 0.0 - - - - - - -
26/04:00pm 25.3 ENE 5 8 1007.8 - 0.0 - - - - - - -
26/03:30pm 25.5 ENE 6 9 1007.8 - 0.0 - - - - - - -
26/03:00pm 26.2 ENE 6 9 1008.1 - 0.0 - - - - - - -
26/02:30pm 26.3 ENE 6 9 1008.4 - 0.0 - - - - - - -
26/02:00pm 26.4 ENE 7 9 1008.6 - 0.0 - - - - - - -
26/01:30pm 26.6 ENE 7 10 1009.0 - 0.0 - - - - - - -
26/01:00pm 25.8 ENE 6 9 1009.4 - 0.0 - - - - - - -
26/12:30pm 26.3 ENE 6 8 1009.8 - 0.0 - - - - - - -
26/12:00pm 25.9 ENE 6 8 1009.7 - 0.0 - - - - - - -
26/11:30am 26.6 ENE 5 7 1010.1 - 0.0 - - - - - - -
26/11:00am 25.8 ENE 4 6 1010.3 - 0.0 - - - - - - -
26/10:30am 26.1 NW 2 4 1010.2 - 0.0 - - - - - - -
26/10:00am 24.7 WSW 4 5 1010.4 - 0.0 - - - - - - -
26/09:30am 24.1 W 3 5 1010.4 - 0.0 - - - - - - -
26/09:00am 23.4 W 3 5 1010.3 - 0.6 - - - - - - -
26/08:30am 22.9 WSW 4 5 1010.1 - 0.6 - - - - - - -
26/08:00am 22.3 SW 3 5 1009.9 - 0.6 - - - - - - -
26/07:30am 21.5 WSW 4 5 1010.0 - 0.6 - - - - - - -
26/07:00am 21.1 WSW 5 6 1010.0 - 0.6 - - - - - - -
26/06:30am 21.1 WSW 3 5 1009.8 - 0.6 - - - - - - -
26/06:00am 21.0 WSW 4 5 1009.4 - 0.6 - - - - - - -
26/05:30am 21.1 WSW 4 6 1009.5 - 0.6 - - - - - - -
26/05:00am 21.1 SW 4 6 1009.5 - 0.6 - - - - - - -
26/04:30am 21.2 WSW 5 6 1009.4 - 0.4 - - - - - - -
26/04:00am 21.4 SW 4 5 1009.5 - 0.4 - - - - - - -
26/03:30am 21.5 SW 4 6 1009.9 - 0.4 - - - - - - -
26/03:00am 21.7 SW 4 6 1010.0 - 0.4 - - - - - - -
26/02:30am 21.8 WSW 5 6 1010.4 - 0.4 - - - - - - -
26/02:00am 22.0 NNW 3 5 1010.6 - 0.4 - - - - - - -
26/01:30am 22.8 WSW 4 5 1011.1 - 0.0 - - - - - - -
26/01:00am 23.7 ENE 4 5 1011.4 - 0.0 - - - - - - -
26/12:30am 23.4 E 5 6 1011.4 - 0.0 - - - - - - -
26/12:00am 23.8 E 5 8 1011.9 - 0.0 - - - - - - -
 
Date/Time
EDT
Temp

°C
Wind Pressure Rain
since 9am
mm
Weather Cloud Vis
km
Sea
Height
m
Swell
Dir
 
Speed
knots
Gust
knots
hPa Trend Height
m
Period
s
Dir
25/11:30pm 24.0 E 6 9 1012.1 - 0.0 - - - - - - -
25/11:00pm 24.1 ESE 7 10 1012.5 - 0.0 - - - - - - -
25/10:30pm 24.2 ESE 7 11 1012.4 - 0.0 - - - - - - -
25/10:00pm 23.9 ESE 6 9 1012.4 - 0.0 - - - - - - -
25/09:30pm 24.2 E 8 13 1012.2 - 0.0 - - - - - - -
25/09:00pm 24.3 ESE 6 9 1012.3 - 0.0 - - - - - - -
25/08:30pm 24.2 ESE 8 11 1012.0 - 0.0 - - - - - - -
25/08:00pm 24.3 ESE 9 14 1012.0 - 0.0 - - - - - - -
25/07:30pm 24.2 ESE 9 14 1011.6 - 0.0 - - - - - - -
25/07:00pm 24.3 ESE 9 13 1011.0 - 0.0 - - - - - - -
25/06:30pm 24.5 ESE 8 12 1011.1 - 0.0 - - - - - - -
25/06:00pm 25.1 ESE 11 15 1011.1 - 0.0 - - - - - - -
25/05:30pm 25.7 ESE 12 16 1011.1 - 0.0 - - - - - - -
25/05:00pm 25.8 SE 13 17 1011.1 - 0.0 - - - - - - -
25/04:30pm 26.3 SE 13 17 1011.0 - 0.0 - - - - - - -
25/04:00pm 26.3 SE 13 16 1011.1 - 0.0 - - - - - - -
25/03:30pm 26.0 SE 13 17 1011.4 - 0.0 - - - - - - -
25/03:00pm 26.1 SE 13 17 1011.7 - 0.0 - - - - - - -
25/02:30pm 26.3 SE 11 15 1012.2 - 0.0 - - - - - - -
25/02:00pm 26.2 SE 14 18 1012.4 - 0.0 - - - - - - -
25/01:30pm 26.1 SE 14 18 1012.5 - 0.0 - - - - - - -
25/01:00pm 26.3 SE 13 17 1012.8 - 0.0 - - - - - - -
25/12:30pm 26.0 SSE 11 15 1013.0 - 0.0 - - - - - - -
25/12:00pm 26.3 SE 10 15 1013.3 - 0.0 - - - - - - -
25/11:30am 25.2 SSE 11 16 1013.4 - 0.0 - - - - - - -
25/11:00am 26.2 SE 11 15 1013.6 - 0.0 - - - - - - -
25/10:30am 25.8 SSE 10 15 1013.5 - 0.0 - - - - - - -
25/10:00am 24.9 SSE 11 15 1013.4 - 0.0 - - - - - - -
25/09:30am 24.0 SSW 6 8 1013.4 - 0.0 - - - - - - -
25/09:00am 22.8 SSW 5 7 1013.3 - 5.6 - - - - - - -
25/08:30am 22.4 SW 4 6 1013.1 - 5.6 - - - - - - -

Other Formats:

Comma delimited format used in spreadsheet applications
http://www.bom.gov.au/fwo/IDN60701/IDN60701.94589.axf

JavaScript Object Notation format (JSON) in row-major order
http://www.bom.gov.au/fwo/IDN60701/IDN60701.94589.json